sensor_id;sensor_type;location;lat;lon;timestamp;P1;durP1;ratioP1;P2;durP2;ratioP2
20078;SDS011;10199;48.850;8.924;2022-09-12T00:04:57;10.17;;;9.17;;
20078;SDS011;10199;48.850;8.924;2022-09-12T00:10:53;9.67;;;8.67;;
20078;SDS011;10199;48.850;8.924;2022-09-12T00:13:21;10.63;;;9.63;;
20078;SDS011;10199;48.850;8.924;2022-09-12T00:20:09;11.27;;;10.10;;
20078;SDS011;10199;48.850;8.924;2022-09-12T00:27:01;9.83;;;8.83;;
20078;SDS011;10199;48.850;8.924;2022-09-12T00:33:42;10.60;;;9.50;;
20078;SDS011;10199;48.850;8.924;2022-09-12T00:39:29;11.00;;;9.90;;
20078;SDS011;10199;48.850;8.924;2022-09-12T00:44:58;11.57;;;10.47;;
20078;SDS011;10199;48.850;8.924;2022-09-12T00:50:29;11.87;;;10.63;;
20078;SDS011;10199;48.850;8.924;2022-09-12T00:52:59;13.10;;;11.70;;
20078;SDS011;10199;48.850;8.924;2022-09-12T00:55:33;12.20;;;10.90;;
20078;SDS011;10199;48.850;8.924;2022-09-12T01:02:26;12.90;;;11.13;;
20078;SDS011;10199;48.850;8.924;2022-09-12T01:08:30;12.23;;;10.93;;
20078;SDS011;10199;48.850;8.924;2022-09-12T01:14:26;12.20;;;11.00;;
20078;SDS011;10199;48.850;8.924;2022-09-12T01:20:29;11.37;;;10.17;;
20078;SDS011;10199;48.850;8.924;2022-09-12T01:23:49;12.33;;;11.03;;
20078;SDS011;10199;48.850;8.924;2022-09-12T01:30:58;12.13;;;10.70;;
20078;SDS011;10199;48.850;8.924;2022-09-12T01:37:53;12.73;;;11.43;;
20078;SDS011;10199;48.850;8.924;2022-09-12T01:48:26;11.83;;;10.63;;
20078;SDS011;10199;48.850;8.924;2022-09-12T01:59:33;10.83;;;9.73;;
20078;SDS011;10199;48.850;8.924;2022-09-12T02:06:31;11.00;;;9.37;;
20078;SDS011;10199;48.850;8.924;2022-09-12T02:22:00;9.93;;;8.80;;
20078;SDS011;10199;48.850;8.924;2022-09-12T02:28:49;11.00;;;9.27;;
20078;SDS011;10199;48.850;8.924;2022-09-12T02:35:13;10.27;;;9.27;;
20078;SDS011;10199;48.850;8.924;2022-09-12T02:37:51;11.00;;;9.83;;
20078;SDS011;10199;48.850;8.924;2022-09-12T02:44:44;10.57;;;9.57;;
20078;SDS011;10199;48.850;8.924;2022-09-12T02:51:37;11.17;;;9.13;;
20078;SDS011;10199;48.850;8.924;2022-09-12T02:54:06;10.23;;;9.13;;
20078;SDS011;10199;48.850;8.924;2022-09-12T03:00:59;9.67;;;8.77;;
20078;SDS011;10199;48.850;8.924;2022-09-12T03:08:03;10.47;;;9.00;;
20078;SDS011;10199;48.850;8.924;2022-09-12T03:10:45;10.63;;;9.60;;
20078;SDS011;10199;48.850;8.924;2022-09-12T03:13:29;11.03;;;9.63;;
20078;SDS011;10199;48.850;8.924;2022-09-12T03:17:34;9.67;;;8.63;;
20078;SDS011;10199;48.850;8.924;2022-09-12T03:24:29;10.20;;;9.20;;
20078;SDS011;10199;48.850;8.924;2022-09-12T03:42:12;11.37;;;10.10;;
20078;SDS011;10199;48.850;8.924;2022-09-12T03:44:40;11.17;;;10.00;;
20078;SDS011;10199;48.850;8.924;2022-09-12T03:47:08;11.20;;;10.07;;
20078;SDS011;10199;48.850;8.924;2022-09-12T03:49:36;10.47;;;9.47;;
20078;SDS011;10199;48.850;8.924;2022-09-12T03:56:32;10.27;;;9.23;;
20078;SDS011;10199;48.850;8.924;2022-09-12T04:14:44;10.30;;;9.07;;
20078;SDS011;10199;48.850;8.924;2022-09-12T04:17:12;11.00;;;9.63;;
20078;SDS011;10199;48.850;8.924;2022-09-12T04:19:39;10.47;;;9.37;;
20078;SDS011;10199;48.850;8.924;2022-09-12T04:26:27;10.37;;;9.00;;
20078;SDS011;10199;48.850;8.924;2022-09-12T04:32:14;12.90;;;9.67;;
20078;SDS011;10199;48.850;8.924;2022-09-12T04:34:42;10.80;;;9.50;;
20078;SDS011;10199;48.850;8.924;2022-09-12T04:37:11;11.57;;;9.63;;
20078;SDS011;10199;48.850;8.924;2022-09-12T04:39:39;10.53;;;9.43;;
20078;SDS011;10199;48.850;8.924;2022-09-12T04:42:06;11.43;;;9.80;;
20078;SDS011;10199;48.850;8.924;2022-09-12T04:44:34;11.93;;;10.10;;
20078;SDS011;10199;48.850;8.924;2022-09-12T04:47:02;11.87;;;9.13;;
20078;SDS011;10199;48.850;8.924;2022-09-12T04:49:32;15.40;;;9.47;;
20078;SDS011;10199;48.850;8.924;2022-09-12T04:52:09;11.50;;;10.30;;
20078;SDS011;10199;48.850;8.924;2022-09-12T04:54:37;10.77;;;9.67;;
20078;SDS011;10199;48.850;8.924;2022-09-12T04:57:05;10.10;;;9.03;;
20078;SDS011;10199;48.850;8.924;2022-09-12T04:59:32;11.57;;;10.13;;
20078;SDS011;10199;48.850;8.924;2022-09-12T05:02:01;11.07;;;9.93;;
20078;SDS011;10199;48.850;8.924;2022-09-12T05:04:28;10.17;;;9.17;;
20078;SDS011;10199;48.850;8.924;2022-09-12T05:06:58;10.43;;;9.43;;
20078;SDS011;10199;48.850;8.924;2022-09-12T05:09:26;10.77;;;9.67;;
20078;SDS011;10199;48.850;8.924;2022-09-12T05:11:54;12.33;;;9.30;;
20078;SDS011;10199;48.850;8.924;2022-09-12T05:14:30;11.67;;;9.50;;
20078;SDS011;10199;48.850;8.924;2022-09-12T05:16:59;10.80;;;9.60;;
20078;SDS011;10199;48.850;8.924;2022-09-12T05:19:27;10.50;;;9.33;;
20078;SDS011;10199;48.850;8.924;2022-09-12T05:21:57;9.97;;;9.07;;
20078;SDS011;10199;48.850;8.924;2022-09-12T05:24:26;9.97;;;8.30;;
20078;SDS011;10199;48.850;8.924;2022-09-12T05:30:31;9.47;;;8.57;;
20078;SDS011;10199;48.850;8.924;2022-09-12T05:35:54;10.37;;;8.20;;
20078;SDS011;10199;48.850;8.924;2022-09-12T05:38:24;9.83;;;8.83;;
20078;SDS011;10199;48.850;8.924;2022-09-12T05:45:16;11.03;;;9.87;;
20078;SDS011;10199;48.850;8.924;2022-09-12T05:52:03;9.87;;;8.97;;
20078;SDS011;10199;48.850;8.924;2022-09-12T05:54:32;9.83;;;8.83;;
20078;SDS011;10199;48.850;8.924;2022-09-12T05:56:59;9.47;;;8.57;;
20078;SDS011;10199;48.850;8.924;2022-09-12T05:59:27;10.53;;;9.43;;
20078;SDS011;10199;48.850;8.924;2022-09-12T06:06:15;9.30;;;8.40;;
20078;SDS011;10199;48.850;8.924;2022-09-12T06:08:45;9.83;;;8.90;;
20078;SDS011;10199;48.850;8.924;2022-09-12T06:11:16;9.30;;;8.40;;
20078;SDS011;10199;48.850;8.924;2022-09-12T06:13:46;10.30;;;8.20;;
20078;SDS011;10199;48.850;8.924;2022-09-12T06:16:15;8.70;;;7.90;;
20078;SDS011;10199;48.850;8.924;2022-09-12T06:18:45;9.00;;;8.20;;
20078;SDS011;10199;48.850;8.924;2022-09-12T06:21:14;8.27;;;7.57;;
20078;SDS011;10199;48.850;8.924;2022-09-12T06:23:43;7.40;;;6.80;;
20078;SDS011;10199;48.850;8.924;2022-09-12T06:26:13;7.90;;;7.10;;
20078;SDS011;10199;48.850;8.924;2022-09-12T06:28:44;8.10;;;7.40;;
20078;SDS011;10199;48.850;8.924;2022-09-12T06:31:12;8.70;;;7.70;;
20078;SDS011;10199;48.850;8.924;2022-09-12T06:33:45;7.00;;;6.40;;
20078;SDS011;10199;48.850;8.924;2022-09-12T06:36:15;7.47;;;6.87;;
20078;SDS011;10199;48.850;8.924;2022-09-12T06:38:43;6.60;;;6.10;;
20078;SDS011;10199;48.850;8.924;2022-09-12T06:41:13;10.67;;;7.00;;
20078;SDS011;10199;48.850;8.924;2022-09-12T06:43:41;8.23;;;7.50;;
20078;SDS011;10199;48.850;8.924;2022-09-12T06:46:11;7.60;;;6.90;;
20078;SDS011;10199;48.850;8.924;2022-09-12T06:48:39;6.40;;;5.90;;
20078;SDS011;10199;48.850;8.924;2022-09-12T06:51:08;5.77;;;5.37;;
20078;SDS011;10199;48.850;8.924;2022-09-12T06:53:38;6.77;;;6.10;;
20078;SDS011;10199;48.850;8.924;2022-09-12T06:56:08;5.87;;;5.43;;
20078;SDS011;10199;48.850;8.924;2022-09-12T06:58:37;5.80;;;5.23;;
20078;SDS011;10199;48.850;8.924;2022-09-12T07:01:07;5.70;;;5.17;;
20078;SDS011;10199;48.850;8.924;2022-09-12T07:03:37;5.83;;;5.33;;
20078;SDS011;10199;48.850;8.924;2022-09-12T07:06:07;5.63;;;5.20;;
20078;SDS011;10199;48.850;8.924;2022-09-12T07:08:36;5.45;;;4.97;;
20078;SDS011;10199;48.850;8.924;2022-09-12T07:11:09;5.28;;;4.85;;
20078;SDS011;10199;48.850;8.924;2022-09-12T07:13:38;5.80;;;5.20;;
20078;SDS011;10199;48.850;8.924;2022-09-12T07:16:08;5.32;;;4.70;;
20078;SDS011;10199;48.850;8.924;2022-09-12T07:18:38;4.80;;;4.28;;
20078;SDS011;10199;48.850;8.924;2022-09-12T07:21:07;4.25;;;3.85;;
20078;SDS011;10199;48.850;8.924;2022-09-12T07:23:37;4.75;;;3.70;;
20078;SDS011;10199;48.850;8.924;2022-09-12T07:26:05;4.65;;;3.92;;
20078;SDS011;10199;48.850;8.924;2022-09-12T07:28:33;4.40;;;3.97;;
20078;SDS011;10199;48.850;8.924;2022-09-12T07:31:05;4.07;;;3.78;;
20078;SDS011;10199;48.850;8.924;2022-09-12T07:33:35;3.80;;;3.50;;
20078;SDS011;10199;48.850;8.924;2022-09-12T07:36:05;3.85;;;3.55;;
20078;SDS011;10199;48.850;8.924;2022-09-12T07:38:35;3.90;;;3.60;;
20078;SDS011;10199;48.850;8.924;2022-09-12T07:41:08;3.95;;;3.55;;
20078;SDS011;10199;48.850;8.924;2022-09-12T07:43:37;3.85;;;3.42;;
20078;SDS011;10199;48.850;8.924;2022-09-12T07:46:05;3.55;;;3.25;;
20078;SDS011;10199;48.850;8.924;2022-09-12T07:48:33;3.50;;;3.25;;
20078;SDS011;10199;48.850;8.924;2022-09-12T07:51:03;3.17;;;2.97;;
20078;SDS011;10199;48.850;8.924;2022-09-12T07:53:33;4.55;;;3.33;;
20078;SDS011;10199;48.850;8.924;2022-09-12T07:56:02;3.05;;;2.85;;
20078;SDS011;10199;48.850;8.924;2022-09-12T07:58:31;4.00;;;2.80;;
20078;SDS011;10199;48.850;8.924;2022-09-12T08:01:01;6.15;;;3.72;;
20078;SDS011;10199;48.850;8.924;2022-09-12T08:03:29;10.30;;;3.92;;
20078;SDS011;10199;48.850;8.924;2022-09-12T08:06:03;4.22;;;2.78;;
20078;SDS011;10199;48.850;8.924;2022-09-12T08:08:31;3.95;;;3.03;;
20078;SDS011;10199;48.850;8.924;2022-09-12T08:11:00;4.13;;;3.20;;
20078;SDS011;10199;48.850;8.924;2022-09-12T08:13:31;8.20;;;3.70;;
20078;SDS011;10199;48.850;8.924;2022-09-12T08:16:01;8.38;;;4.43;;
20078;SDS011;10199;48.850;8.924;2022-09-12T08:18:31;9.32;;;3.47;;
20078;SDS011;10199;48.850;8.924;2022-09-12T08:20:59;4.32;;;2.53;;
20078;SDS011;10199;48.850;8.924;2022-09-12T08:23:30;3.40;;;3.08;;
20078;SDS011;10199;48.850;8.924;2022-09-12T08:25:59;2.67;;;2.47;;
20078;SDS011;10199;48.850;8.924;2022-09-12T08:28:31;4.07;;;3.00;;
20078;SDS011;10199;48.850;8.924;2022-09-12T08:31:00;3.88;;;3.30;;
20078;SDS011;10199;48.850;8.924;2022-09-12T08:33:29;7.00;;;2.92;;
20078;SDS011;10199;48.850;8.924;2022-09-12T08:36:02;3.90;;;2.38;;
20078;SDS011;10199;48.850;8.924;2022-09-12T08:38:33;4.10;;;2.22;;
20078;SDS011;10199;48.850;8.924;2022-09-12T08:41:02;3.92;;;2.20;;
20078;SDS011;10199;48.850;8.924;2022-09-12T08:43:40;2.70;;;2.50;;
20078;SDS011;10199;48.850;8.924;2022-09-12T08:46:21;7.88;;;3.47;;
20078;SDS011;10199;48.850;8.924;2022-09-12T08:48:51;15.02;;;3.88;;
20078;SDS011;10199;48.850;8.924;2022-09-12T08:51:19;6.45;;;3.08;;
20078;SDS011;10199;48.850;8.924;2022-09-12T08:53:49;13.70;;;4.07;;
20078;SDS011;10199;48.850;8.924;2022-09-12T08:56:19;4.03;;;3.05;;
20078;SDS011;10199;48.850;8.924;2022-09-12T08:58:47;3.10;;;2.80;;
20078;SDS011;10199;48.850;8.924;2022-09-12T09:01:18;2.78;;;2.58;;
20078;SDS011;10199;48.850;8.924;2022-09-12T09:07:01;2.90;;;2.63;;
20078;SDS011;10199;48.850;8.924;2022-09-12T09:09:43;2.90;;;2.70;;
20078;SDS011;10199;48.850;8.924;2022-09-12T09:12:25;3.35;;;2.60;;
20078;SDS011;10199;48.850;8.924;2022-09-12T09:15:02;3.72;;;3.05;;
20078;SDS011;10199;48.850;8.924;2022-09-12T09:17:39;2.85;;;2.55;;
20078;SDS011;10199;48.850;8.924;2022-09-12T09:20:13;5.47;;;2.65;;
20078;SDS011;10199;48.850;8.924;2022-09-12T09:22:47;4.30;;;3.55;;
20078;SDS011;10199;48.850;8.924;2022-09-12T09:25:21;2.83;;;2.53;;
20078;SDS011;10199;48.850;8.924;2022-09-12T09:27:52;2.85;;;2.65;;
20078;SDS011;10199;48.850;8.924;2022-09-12T09:30:24;2.78;;;2.58;;
20078;SDS011;10199;48.850;8.924;2022-09-12T09:32:54;3.08;;;2.67;;
20078;SDS011;10199;48.850;8.924;2022-09-12T09:35:28;2.63;;;2.42;;
20078;SDS011;10199;48.850;8.924;2022-09-12T09:38:11;3.30;;;3.00;;
20078;SDS011;10199;48.850;8.924;2022-09-12T09:40:52;2.28;;;2.17;;
20078;SDS011;10199;48.850;8.924;2022-09-12T09:43:32;3.58;;;2.22;;
20078;SDS011;10199;48.850;8.924;2022-09-12T09:46:00;2.22;;;2.00;;
20078;SDS011;10199;48.850;8.924;2022-09-12T09:48:29;2.55;;;2.00;;
20078;SDS011;10199;48.850;8.924;2022-09-12T09:50:58;2.28;;;2.08;;
20078;SDS011;10199;48.850;8.924;2022-09-12T09:53:31;2.45;;;2.00;;
20078;SDS011;10199;48.850;8.924;2022-09-12T09:56:06;2.20;;;1.90;;
20078;SDS011;10199;48.850;8.924;2022-09-12T09:58:38;4.80;;;2.47;;
20078;SDS011;10199;48.850;8.924;2022-09-12T10:01:11;2.42;;;2.22;;
20078;SDS011;10199;48.850;8.924;2022-09-12T10:03:46;2.72;;;2.28;;
20078;SDS011;10199;48.850;8.924;2022-09-12T10:06:24;2.35;;;1.50;;
20078;SDS011;10199;48.850;8.924;2022-09-12T10:09:03;1.50;;;1.40;;
20078;SDS011;10199;48.850;8.924;2022-09-12T10:11:47;1.70;;;1.60;;
20078;SDS011;10199;48.850;8.924;2022-09-12T10:14:34;2.10;;;1.65;;
20078;SDS011;10199;48.850;8.924;2022-09-12T10:17:20;1.40;;;1.30;;
20078;SDS011;10199;48.850;8.924;2022-09-12T10:19:53;1.77;;;1.67;;
20078;SDS011;10199;48.850;8.924;2022-09-12T10:22:30;1.80;;;1.60;;
20078;SDS011;10199;48.850;8.924;2022-09-12T10:24:58;1.60;;;1.50;;
20078;SDS011;10199;48.850;8.924;2022-09-12T10:27:29;1.80;;;1.70;;
20078;SDS011;10199;48.850;8.924;2022-09-12T10:29:59;4.25;;;1.63;;
20078;SDS011;10199;48.850;8.924;2022-09-12T10:32:30;1.45;;;1.35;;
20078;SDS011;10199;48.850;8.924;2022-09-12T10:35:04;1.58;;;1.48;;
20078;SDS011;10199;48.850;8.924;2022-09-12T10:37:34;1.85;;;1.60;;
20078;SDS011;10199;48.850;8.924;2022-09-12T10:40:05;1.85;;;1.73;;
20078;SDS011;10199;48.850;8.924;2022-09-12T10:42:45;1.77;;;1.58;;
20078;SDS011;10199;48.850;8.924;2022-09-12T10:45:17;1.17;;;1.17;;
20078;SDS011;10199;48.850;8.924;2022-09-12T10:47:46;1.95;;;1.48;;
20078;SDS011;10199;48.850;8.924;2022-09-12T10:50:21;2.10;;;1.25;;
20078;SDS011;10199;48.850;8.924;2022-09-12T10:52:52;1.88;;;1.60;;
20078;SDS011;10199;48.850;8.924;2022-09-12T10:55:21;1.65;;;1.55;;
20078;SDS011;10199;48.850;8.924;2022-09-12T10:58:01;1.73;;;1.63;;
20078;SDS011;10199;48.850;8.924;2022-09-12T11:00:44;1.55;;;1.38;;
20078;SDS011;10199;48.850;8.924;2022-09-12T11:03:21;1.40;;;1.30;;
20078;SDS011;10199;48.850;8.924;2022-09-12T11:05:52;1.40;;;1.30;;
20078;SDS011;10199;48.850;8.924;2022-09-12T11:08:28;2.25;;;1.58;;
20078;SDS011;10199;48.850;8.924;2022-09-12T11:11:23;2.60;;;1.50;;
20078;SDS011;10199;48.850;8.924;2022-09-12T11:14:19;1.40;;;1.30;;
20078;SDS011;10199;48.850;8.924;2022-09-12T11:17:02;1.40;;;1.30;;
20078;SDS011;10199;48.850;8.924;2022-09-12T11:19:43;1.50;;;1.40;;
20078;SDS011;10199;48.850;8.924;2022-09-12T11:22:28;1.23;;;1.13;;
20078;SDS011;10199;48.850;8.924;2022-09-12T11:25:17;3.38;;;1.88;;
20078;SDS011;10199;48.850;8.924;2022-09-12T11:28:13;1.50;;;1.40;;
20078;SDS011;10199;48.850;8.924;2022-09-12T11:30:54;1.55;;;1.45;;
20078;SDS011;10199;48.850;8.924;2022-09-12T11:33:37;1.67;;;1.58;;
20078;SDS011;10199;48.850;8.924;2022-09-12T11:36:12;2.08;;;1.13;;
20078;SDS011;10199;48.850;8.924;2022-09-12T11:38:53;1.23;;;1.00;;
20078;SDS011;10199;48.850;8.924;2022-09-12T11:41:29;2.58;;;0.85;;
20078;SDS011;10199;48.850;8.924;2022-09-12T11:44:02;2.13;;;1.33;;
20078;SDS011;10199;48.850;8.924;2022-09-12T11:46:38;1.08;;;1.00;;
20078;SDS011;10199;48.850;8.924;2022-09-12T11:49:12;1.92;;;1.02;;
20078;SDS011;10199;48.850;8.924;2022-09-12T11:51:48;11.30;;;2.42;;
20078;SDS011;10199;48.850;8.924;2022-09-12T11:54:20;7.43;;;1.38;;
20078;SDS011;10199;48.850;8.924;2022-09-12T11:56:54;0.75;;;0.70;;
20078;SDS011;10199;48.850;8.924;2022-09-12T11:59:32;1.92;;;1.10;;
20078;SDS011;10199;48.850;8.924;2022-09-12T12:02:11;1.65;;;1.42;;
20078;SDS011;10199;48.850;8.924;2022-09-12T12:07:41;0.90;;;0.90;;
20078;SDS011;10199;48.850;8.924;2022-09-12T12:10:22;1.05;;;1.00;;
20078;SDS011;10199;48.850;8.924;2022-09-12T12:12:53;1.20;;;1.00;;
20078;SDS011;10199;48.850;8.924;2022-09-12T12:15:22;1.73;;;1.25;;
20078;SDS011;10199;48.850;8.924;2022-09-12T12:18:00;1.17;;;1.10;;
20078;SDS011;10199;48.850;8.924;2022-09-12T12:20:30;1.35;;;1.08;;
20078;SDS011;10199;48.850;8.924;2022-09-12T12:22:58;2.22;;;1.10;;
20078;SDS011;10199;48.850;8.924;2022-09-12T12:25:40;0.90;;;0.90;;
20078;SDS011;10199;48.850;8.924;2022-09-12T12:31:24;2.05;;;0.90;;
20078;SDS011;10199;48.850;8.924;2022-09-12T12:33:54;1.20;;;1.10;;
20078;SDS011;10199;48.850;8.924;2022-09-12T12:36:45;1.55;;;1.00;;
20078;SDS011;10199;48.850;8.924;2022-09-12T12:51:37;1.98;;;0.95;;
20078;SDS011;10199;48.850;8.924;2022-09-12T12:57:15;2.00;;;0.95;;
20078;SDS011;10199;48.850;8.924;2022-09-12T12:59:46;0.80;;;0.80;;
20078;SDS011;10199;48.850;8.924;2022-09-12T13:02:18;1.42;;;1.08;;
20078;SDS011;10199;48.850;8.924;2022-09-12T13:04:51;1.50;;;1.08;;
20078;SDS011;10199;48.850;8.924;2022-09-12T13:07:23;0.60;;;0.60;;
20078;SDS011;10199;48.850;8.924;2022-09-12T13:09:55;14.70;;;2.65;;
20078;SDS011;10199;48.850;8.924;2022-09-12T13:12:24;0.77;;;0.77;;
20078;SDS011;10199;48.850;8.924;2022-09-12T13:14:56;1.00;;;0.80;;
20078;SDS011;10199;48.850;8.924;2022-09-12T13:17:27;1.58;;;0.95;;
20078;SDS011;10199;48.850;8.924;2022-09-12T13:22:52;5.45;;;1.50;;
20078;SDS011;10199;48.850;8.924;2022-09-12T13:25:22;1.65;;;1.20;;
20078;SDS011;10199;48.850;8.924;2022-09-12T13:28:00;0.75;;;0.73;;
20078;SDS011;10199;48.850;8.924;2022-09-12T13:30:32;2.38;;;1.02;;
20078;SDS011;10199;48.850;8.924;2022-09-12T13:33:03;0.70;;;0.70;;
20078;SDS011;10199;48.850;8.924;2022-09-12T13:35:42;3.45;;;2.28;;
20078;SDS011;10199;48.850;8.924;2022-09-12T13:38:24;0.98;;;0.90;;
20078;SDS011;10199;48.850;8.924;2022-09-12T13:41:06;1.60;;;0.90;;
20078;SDS011;10199;48.850;8.924;2022-09-12T13:43:45;2.30;;;0.80;;
20078;SDS011;10199;48.850;8.924;2022-09-12T13:46:14;1.50;;;1.00;;
20078;SDS011;10199;48.850;8.924;2022-09-12T13:48:47;3.70;;;1.45;;
20078;SDS011;10199;48.850;8.924;2022-09-12T13:51:20;2.03;;;1.17;;
20078;SDS011;10199;48.850;8.924;2022-09-12T13:53:51;0.98;;;0.88;;
20078;SDS011;10199;48.850;8.924;2022-09-12T13:56:22;1.17;;;0.70;;
20078;SDS011;10199;48.850;8.924;2022-09-12T13:58:51;1.83;;;0.73;;
20078;SDS011;10199;48.850;8.924;2022-09-12T14:01:22;1.30;;;1.20;;
20078;SDS011;10199;48.850;8.924;2022-09-12T14:03:52;1.15;;;0.98;;
20078;SDS011;10199;48.850;8.924;2022-09-12T14:06:51;1.45;;;0.90;;
20078;SDS011;10199;48.850;8.924;2022-09-12T14:09:21;2.05;;;1.02;;
20078;SDS011;10199;48.850;8.924;2022-09-12T14:11:51;6.07;;;1.67;;
20078;SDS011;10199;48.850;8.924;2022-09-12T14:14:24;2.25;;;1.95;;
20078;SDS011;10199;48.850;8.924;2022-09-12T14:16:56;1.00;;;1.00;;
20078;SDS011;10199;48.850;8.924;2022-09-12T14:19:24;2.33;;;0.70;;
20078;SDS011;10199;48.850;8.924;2022-09-12T14:21:55;1.67;;;0.93;;
20078;SDS011;10199;48.850;8.924;2022-09-12T14:24:24;1.13;;;1.00;;
20078;SDS011;10199;48.850;8.924;2022-09-12T14:26:53;0.88;;;0.88;;
20078;SDS011;10199;48.850;8.924;2022-09-12T14:29:23;3.15;;;0.90;;
20078;SDS011;10199;48.850;8.924;2022-09-12T14:31:59;1.98;;;0.80;;
20078;SDS011;10199;48.850;8.924;2022-09-12T14:34:29;1.15;;;0.98;;
20078;SDS011;10199;48.850;8.924;2022-09-12T14:36:58;0.80;;;0.80;;
20078;SDS011;10199;48.850;8.924;2022-09-12T14:39:27;0.95;;;0.75;;
20078;SDS011;10199;48.850;8.924;2022-09-12T14:42:03;0.80;;;0.80;;
20078;SDS011;10199;48.850;8.924;2022-09-12T14:44:33;1.35;;;0.80;;
20078;SDS011;10199;48.850;8.924;2022-09-12T14:47:10;1.88;;;0.80;;
20078;SDS011;10199;48.850;8.924;2022-09-12T14:49:41;0.70;;;0.70;;
20078;SDS011;10199;48.850;8.924;2022-09-12T14:52:20;1.25;;;0.82;;
20078;SDS011;10199;48.850;8.924;2022-09-12T14:54:57;1.02;;;1.00;;
20078;SDS011;10199;48.850;8.924;2022-09-12T14:57:29;2.65;;;0.82;;
20078;SDS011;10199;48.850;8.924;2022-09-12T15:00:13;1.45;;;1.30;;
20078;SDS011;10199;48.850;8.924;2022-09-12T15:02:46;1.20;;;0.80;;
20078;SDS011;10199;48.850;8.924;2022-09-12T15:05:19;0.98;;;0.90;;
20078;SDS011;10199;48.850;8.924;2022-09-12T15:07:55;0.80;;;0.80;;
20078;SDS011;10199;48.850;8.924;2022-09-12T15:10:26;0.80;;;0.80;;
20078;SDS011;10199;48.850;8.924;2022-09-12T15:13:08;1.63;;;0.77;;
20078;SDS011;10199;48.850;8.924;2022-09-12T15:15:42;0.80;;;0.60;;
20078;SDS011;10199;48.850;8.924;2022-09-12T15:18:10;0.57;;;0.57;;
20078;SDS011;10199;48.850;8.924;2022-09-12T15:20:39;0.80;;;0.80;;
20078;SDS011;10199;48.850;8.924;2022-09-12T15:23:13;1.27;;;0.75;;
20078;SDS011;10199;48.850;8.924;2022-09-12T15:25:45;0.70;;;0.70;;
20078;SDS011;10199;48.850;8.924;2022-09-12T15:28:17;1.58;;;0.50;;
20078;SDS011;10199;48.850;8.924;2022-09-12T15:30:47;0.52;;;0.52;;
20078;SDS011;10199;48.850;8.924;2022-09-12T15:33:16;0.75;;;0.57;;
20078;SDS011;10199;48.850;8.924;2022-09-12T15:35:46;0.95;;;0.80;;
20078;SDS011;10199;48.850;8.924;2022-09-12T15:38:15;0.82;;;0.70;;
20078;SDS011;10199;48.850;8.924;2022-09-12T15:40:48;0.80;;;0.80;;
20078;SDS011;10199;48.850;8.924;2022-09-12T15:43:19;0.68;;;0.65;;
20078;SDS011;10199;48.850;8.924;2022-09-12T15:45:48;2.85;;;2.50;;
20078;SDS011;10199;48.850;8.924;2022-09-12T15:48:17;1.77;;;0.88;;
20078;SDS011;10199;48.850;8.924;2022-09-12T15:50:46;1.08;;;0.60;;
20078;SDS011;10199;48.850;8.924;2022-09-12T15:53:16;1.20;;;1.10;;
20078;SDS011;10199;48.850;8.924;2022-09-12T15:55:43;0.60;;;0.60;;
20078;SDS011;10199;48.850;8.924;2022-09-12T15:58:11;0.77;;;0.68;;
20078;SDS011;10199;48.850;8.924;2022-09-12T16:00:39;0.60;;;0.60;;
20078;SDS011;10199;48.850;8.924;2022-09-12T16:03:08;0.77;;;0.70;;
20078;SDS011;10199;48.850;8.924;2022-09-12T16:05:46;1.35;;;0.55;;
20078;SDS011;10199;48.850;8.924;2022-09-12T16:08:16;1.98;;;0.90;;
20078;SDS011;10199;48.850;8.924;2022-09-12T16:10:44;1.67;;;0.85;;
20078;SDS011;10199;48.850;8.924;2022-09-12T16:13:14;0.98;;;0.73;;
20078;SDS011;10199;48.850;8.924;2022-09-12T16:15:42;0.90;;;0.63;;
20078;SDS011;10199;48.850;8.924;2022-09-12T16:18:09;2.22;;;0.88;;
20078;SDS011;10199;48.850;8.924;2022-09-12T16:20:38;0.82;;;0.70;;
20078;SDS011;10199;48.850;8.924;2022-09-12T16:23:06;0.75;;;0.63;;
20078;SDS011;10199;48.850;8.924;2022-09-12T16:25:36;1.17;;;0.50;;
20078;SDS011;10199;48.850;8.924;2022-09-12T16:28:04;0.85;;;0.60;;
20078;SDS011;10199;48.850;8.924;2022-09-12T16:30:33;1.60;;;0.82;;
20078;SDS011;10199;48.850;8.924;2022-09-12T16:33:01;0.98;;;0.80;;
20078;SDS011;10199;48.850;8.924;2022-09-12T16:35:30;1.42;;;0.70;;
20078;SDS011;10199;48.850;8.924;2022-09-12T16:37:58;0.60;;;0.60;;
20078;SDS011;10199;48.850;8.924;2022-09-12T16:40:26;1.15;;;0.75;;
20078;SDS011;10199;48.850;8.924;2022-09-12T16:42:56;0.80;;;0.70;;
20078;SDS011;10199;48.850;8.924;2022-09-12T16:45:24;1.10;;;1.00;;
20078;SDS011;10199;48.850;8.924;2022-09-12T16:47:52;1.27;;;0.85;;
20078;SDS011;10199;48.850;8.924;2022-09-12T16:50:20;1.10;;;1.00;;
20078;SDS011;10199;48.850;8.924;2022-09-12T16:52:49;0.63;;;0.63;;
20078;SDS011;10199;48.850;8.924;2022-09-12T16:55:17;1.42;;;0.60;;
20078;SDS011;10199;48.850;8.924;2022-09-12T16:57:44;0.60;;;0.60;;
20078;SDS011;10199;48.850;8.924;2022-09-12T17:00:16;0.90;;;0.80;;
20078;SDS011;10199;48.850;8.924;2022-09-12T17:02:44;1.33;;;1.10;;
20078;SDS011;10199;48.850;8.924;2022-09-12T17:05:12;1.23;;;0.77;;
20078;SDS011;10199;48.850;8.924;2022-09-12T17:07:41;0.80;;;0.75;;
20078;SDS011;10199;48.850;8.924;2022-09-12T17:10:09;1.17;;;1.08;;
20078;SDS011;10199;48.850;8.924;2022-09-12T17:12:37;1.30;;;0.82;;
20078;SDS011;10199;48.850;8.924;2022-09-12T17:15:05;1.25;;;1.00;;
20078;SDS011;10199;48.850;8.924;2022-09-12T17:17:34;1.27;;;0.93;;
20078;SDS011;10199;48.850;8.924;2022-09-12T17:20:02;1.30;;;0.90;;
20078;SDS011;10199;48.850;8.924;2022-09-12T17:22:31;1.35;;;0.90;;
20078;SDS011;10199;48.850;8.924;2022-09-12T17:24:59;0.80;;;0.80;;
20078;SDS011;10199;48.850;8.924;2022-09-12T17:27:27;1.10;;;0.90;;
20078;SDS011;10199;48.850;8.924;2022-09-12T17:29:55;1.83;;;1.00;;
20078;SDS011;10199;48.850;8.924;2022-09-12T17:32:22;1.40;;;1.30;;
20078;SDS011;10199;48.850;8.924;2022-09-12T17:34:51;3.53;;;1.08;;
20078;SDS011;10199;48.850;8.924;2022-09-12T17:37:19;2.90;;;1.25;;
20078;SDS011;10199;48.850;8.924;2022-09-12T17:39:48;1.63;;;1.10;;
20078;SDS011;10199;48.850;8.924;2022-09-12T17:42:16;2.58;;;1.30;;
20078;SDS011;10199;48.850;8.924;2022-09-12T17:44:45;5.75;;;1.48;;
20078;SDS011;10199;48.850;8.924;2022-09-12T17:47:13;0.85;;;0.82;;
20078;SDS011;10199;48.850;8.924;2022-09-12T17:49:40;1.85;;;1.10;;
20078;SDS011;10199;48.850;8.924;2022-09-12T17:52:10;2.47;;;1.05;;
20078;SDS011;10199;48.850;8.924;2022-09-12T17:54:38;1.90;;;1.05;;
20078;SDS011;10199;48.850;8.924;2022-09-12T17:57:06;8.27;;;6.55;;
20078;SDS011;10199;48.850;8.924;2022-09-12T17:59:34;3.63;;;1.83;;
20078;SDS011;10199;48.850;8.924;2022-09-12T18:02:01;3.97;;;1.95;;
20078;SDS011;10199;48.850;8.924;2022-09-12T18:04:42;1.30;;;1.20;;
20078;SDS011;10199;48.850;8.924;2022-09-12T18:07:13;1.30;;;1.08;;
20078;SDS011;10199;48.850;8.924;2022-09-12T18:09:43;2.45;;;1.27;;
20078;SDS011;10199;48.850;8.924;2022-09-12T18:12:13;5.07;;;1.40;;
20078;SDS011;10199;48.850;8.924;2022-09-12T18:14:41;4.15;;;1.60;;
20078;SDS011;10199;48.850;8.924;2022-09-12T18:17:09;2.25;;;1.40;;
20078;SDS011;10199;48.850;8.924;2022-09-12T18:19:37;2.50;;;1.23;;
20078;SDS011;10199;48.850;8.924;2022-09-12T18:22:05;1.70;;;1.60;;
20078;SDS011;10199;48.850;8.924;2022-09-12T18:24:36;2.72;;;1.83;;
20078;SDS011;10199;48.850;8.924;2022-09-12T18:27:04;3.50;;;1.70;;
20078;SDS011;10199;48.850;8.924;2022-09-12T18:29:32;4.30;;;1.25;;
20078;SDS011;10199;48.850;8.924;2022-09-12T18:32:00;2.30;;;1.50;;
20078;SDS011;10199;48.850;8.924;2022-09-12T18:34:28;2.25;;;1.30;;
20078;SDS011;10199;48.850;8.924;2022-09-12T18:36:56;4.60;;;1.80;;
20078;SDS011;10199;48.850;8.924;2022-09-12T18:39:24;2.45;;;1.35;;
20078;SDS011;10199;48.850;8.924;2022-09-12T18:41:54;2.60;;;1.45;;